Time;durP1;ratioP1;P1;durP2;ratioP2;P2;SDS_P1;SDS_P2;PMS_P1;PMS_P2;Temp;Humidity;BMP_temperature;BMP_pressure;BME280_temperature;BME280_humidity;BME280_pressure;Samples;Min_cycle;Max_cycle;Signal;HPM_P1;HPM_P2
2022/02/05 00:45:10;;;;;;;12.30;8.40;;;;;;;3.75;85.23;97712.98;432456;1268;97633;-42
2022/02/05 00:55:23;;;;;;;24.50;12.40;;;;;;;3.75;85.36;97703.73;433163;1268;112339;-40
2022/02/05 01:05:31;;;;;;;22.50;12.50;;;;;;;3.72;85.43;97705.19;432982;1268;107979;-40
2022/02/05 01:15:43;;;;;;;18.90;11.60;;;;;;;3.74;85.24;97700.95;433019;1268;108693;-43
2022/02/05 01:25:58;;;;;;;17.70;11.00;;;;;;;3.82;85.33;97698.96;433066;1268;98595;-41
2022/02/05 01:36:22;;;;;;;25.40;13.00;;;;;;;3.91;85.42;97703.45;433102;1267;108914;-41
2022/02/05 01:57:02;;;;;;;19.60;12.40;;;;;;;3.87;85.57;97687.10;433316;1268;111215;-40
2022/02/05 02:27:57;;;;;;;20.00;13.00;;;;;;;3.95;85.69;97679.44;433370;1265;111189;-40
2022/02/05 02:38:09;;;;;;;12.80;9.90;;;;;;;3.93;85.69;97677.73;433495;1268;108578;-41
2022/02/05 02:48:17;;;;;;;15.10;8.50;;;;;;;3.97;85.59;97690.69;433230;1267;97920;-40
2022/02/05 02:58:28;;;;;;;15.30;10.00;;;;;;;4.01;85.70;97695.26;433456;1268;111093;-41
2022/02/05 03:08:35;;;;;;;18.30;11.00;;;;;;;3.98;85.76;97698.81;432364;1270;108823;-41
2022/02/05 03:28:51;;;;;;;;;;;;;;;4.03;85.54;97731.48;433249;1268;108818;-39
2022/02/05 03:38:58;;;;;;;10.80;7.10;;;;;;;4.14;85.67;97752.63;433147;1268;97533;-42
2022/02/05 03:49:05;;;;;;;5.80;3.90;;;;;;;4.22;85.47;97767.14;433251;1268;111079;-40
2022/02/05 03:59:12;;;;;;;4.40;3.00;;;;;;;4.38;85.02;97786.59;432190;1270;109394;-41
2022/02/05 04:09:24;;;;;;;3.90;0.90;;;;;;;4.36;83.79;97844.33;433250;1268;98013;-41
2022/02/05 04:19:31;;;;;;;1.90;0.50;;;;;;;3.70;82.20;97881.48;433328;1267;110086;-41
2022/02/05 04:29:39;;;;;;;1.60;0.50;;;;;;;3.32;82.89;97915.23;433330;1268;108932;-41
2022/02/05 04:39:53;;;;;;;1.20;0.60;;;;;;;3.12;82.86;97949.61;433036;1270;97530;-40
2022/02/05 05:00:58;;;;;;;3.00;0.50;;;;;;;2.84;81.54;98008.67;433044;1268;108742;-40
2022/02/05 05:21:30;;;;;;;1.50;0.60;;;;;;;2.33;81.12;98048.39;433470;1268;97948;-41
2022/02/05 05:31:38;;;;;;;1.40;1.10;;;;;;;2.26;80.76;98065.30;433203;1268;109016;-40
2022/02/05 05:41:45;;;;;;;2.30;1.30;;;;;;;2.15;81.20;98084.95;433413;1268;98009;-39
2022/02/05 05:51:52;;;;;;;2.50;1.00;;;;;;;1.94;81.70;98100.27;433431;1268;97481;-40
2022/02/05 06:02:00;;;;;;;3.60;1.30;;;;;;;1.95;82.12;98108.80;433275;1268;108861;-40
2022/02/05 06:12:08;;;;;;;6.10;2.60;;;;;;;2.00;82.29;98122.55;433450;1268;97922;-39
2022/02/05 06:22:16;;;;;;;3.50;1.80;;;;;;;1.95;82.32;98137.35;433389;1268;98025;-40
2022/02/05 06:32:23;;;;;;;10.30;3.50;;;;;;;1.94;82.12;98169.40;432353;1270;111238;-41
2022/02/05 06:42:30;;;;;;;6.90;2.40;;;;;;;1.99;82.41;98209.83;433375;1268;108880;-39
2022/02/05 06:52:38;;;;;;;5.60;1.80;;;;;;;1.82;82.82;98230.82;433480;1268;97953;-40
2022/02/05 07:02:43;;;;;;;2.60;1.50;;;;;;;1.89;83.18;98233.63;432463;1270;111297;-40
2022/02/05 07:33:28;;;;;;;5.30;2.10;;;;;;;2.29;83.11;98273.13;433368;1268;111866;-40
2022/02/05 07:43:39;;;;;;;7.00;2.60;;;;;;;2.46;82.83;98279.33;433376;1268;108950;-40
2022/02/05 07:53:47;;;;;;;12.70;5.40;;;;;;;2.61;82.63;98286.26;433271;1268;97910;-40
2022/02/05 08:03:54;;;;;;;8.70;3.40;;;;;;;2.71;82.68;98300.68;433378;1268;111283;-40
2022/02/05 08:14:06;;;;;;;11.30;4.20;;;;;;;2.80;82.47;98306.02;433367;1268;108881;-40
2022/02/05 08:24:14;;;;;;;5.60;2.70;;;;;;;2.85;81.90;98312.78;433301;1268;107486;-40
2022/02/05 08:34:21;;;;;;;11.70;5.60;;;;;;;2.90;81.60;98323.23;433266;1268;97939;-40
2022/02/05 08:44:30;;;;;;;10.40;4.90;;;;;;;2.97;81.45;98338.42;433313;1268;111095;-42
2022/02/05 08:54:37;;;;;;;14.60;6.20;;;;;;;3.14;81.28;98344.80;433380;1268;108881;-40
2022/02/05 09:14:54;;;;;;;16.40;6.60;;;;;;;3.52;81.00;98342.69;433274;1268;110826;-40
2022/02/05 09:25:02;;;;;;;3.80;2.40;;;;;;;3.51;80.15;98343.92;432395;1270;108823;-40
2022/02/05 09:35:08;;;;;;;10.60;3.10;;;;;;;3.67;80.08;98345.56;432482;1270;108962;-41
2022/02/05 09:45:13;;;;;;;11.30;3.20;;;;;;;3.70;79.51;98358.17;433344;1268;97906;-40
2022/02/05 09:55:25;;;;;;;14.20;5.00;;;;;;;3.67;79.42;98355.91;433426;1268;111144;-40
2022/02/05 10:05:33;;;;;;;5.70;2.70;;;;;;;3.72;78.98;98363.54;433414;1268;109009;-40
2022/02/05 10:15:42;;;;;;;11.30;2.70;;;;;;;3.99;78.08;98363.60;432637;1270;97520;-40
2022/02/05 10:25:48;;;;;;;17.40;8.20;;;;;;;4.27;76.81;98350.72;432677;1270;111566;-40
2022/02/05 10:46:05;;;;;;;13.80;6.80;;;;;;;4.71;74.64;98363.48;432798;1270;108964;-40
2022/02/05 10:56:17;;;;;;;6.40;3.90;;;;;;;4.73;73.12;98361.93;432891;1270;98096;-40
2022/02/05 11:26:55;;;;;;;9.40;4.30;;;;;;;4.21;74.13;98384.77;433041;1268;108959;-39
2022/02/05 11:37:06;;;;;;;18.80;9.40;;;;;;;4.02;75.36;98378.08;433079;1268;97959;-39
2022/02/05 11:47:30;;;;;;;15.60;6.30;;;;;;;4.13;75.97;98369.83;433197;1268;108821;-41
2022/02/05 12:08:28;;;;;;;11.50;5.60;;;;;;;3.57;76.65;98389.50;433171;1268;111213;-40
2022/02/05 12:29:36;;;;;;;10.70;6.00;;;;;;;3.94;77.66;98383.61;433110;1268;98016;-41
2022/02/05 12:39:45;;;;;;;16.20;6.40;;;;;;;3.67;77.42;98406.66;433148;1268;111104;-40
2022/02/05 13:00:05;;;;;;;7.40;4.40;;;;;;;2.77;78.62;98413.80;433135;1268;97542;-41
2022/02/05 13:10:11;;;;;;;10.30;3.90;;;;;;;2.90;79.11;98413.41;433281;1268;111170;-40
2022/02/05 13:24:42;;;;;;;12.00;5.90;;;;;;;3.15;79.60;98408.67;433205;1268;108835;-40
2022/02/05 13:41:28;;;;;;;10.00;4.40;;;;;;;3.61;79.62;98395.81;429383;1268;5404334;-40
2022/02/05 13:51:38;;;;;;;12.10;4.30;;;;;;;3.78;79.37;98403.57;432372;1270;108737;-40
2022/02/05 14:01:44;;;;;;;9.20;5.40;;;;;;;4.10;78.61;98409.18;433215;1268;108876;-40
2022/02/05 14:11:50;;;;;;;22.10;8.50;;;;;;;4.14;77.74;98413.67;433243;1268;97943;-40
2022/02/05 14:21:59;;;;;;;11.20;5.60;;;;;;;4.09;76.87;98428.47;432853;1268;97546;-40
2022/02/05 14:32:19;;;;;;;21.40;9.40;;;;;;;3.95;76.93;98443.27;432471;1268;109925;-41
2022/02/05 14:42:26;;;;;;;12.60;4.30;;;;;;;3.62;76.24;98479.03;433109;1268;108603;-40
2022/02/05 14:52:33;;;;;;;7.00;2.30;;;;;;;2.98;77.27;98509.13;432155;1270;108804;-40
2022/02/05 15:02:40;;;;;;;26.30;9.20;;;;;;;2.47;78.19;98511.71;432882;1268;97902;-41
2022/02/05 15:12:47;;;;;;;19.50;8.00;;;;;;;2.08;78.55;98521.65;433201;1268;111139;-40
2022/02/05 15:22:54;;;;;;;7.20;4.20;;;;;;;1.90;78.64;98542.36;433145;1268;108682;-39
2022/02/05 15:53:36;;;;;;;10.90;5.10;;;;;;;1.64;78.94;98592.11;432851;1268;108881;-40
2022/02/05 16:03:44;;;;;;;14.70;5.90;;;;;;;1.65;78.92;98602.89;432962;1268;108794;-41
2022/02/05 16:13:52;;;;;;;18.80;8.80;;;;;;;1.67;78.91;98616.58;433175;1268;97903;-41
2022/02/05 16:23:59;;;;;;;13.20;7.70;;;;;;;1.60;79.12;98636.73;433110;1268;109310;-39
2022/02/05 16:44:12;;;;;;;26.50;12.50;;;;;;;1.32;79.31;98662.22;433213;1268;98009;-39
2022/02/05 16:54:21;;;;;;;26.00;12.00;;;;;;;1.23;79.45;98668.23;433038;1268;97939;-40
2022/02/05 17:04:28;;;;;;;42.70;19.10;;;;;;;1.20;79.71;98665.63;433293;1268;108875;-40
2022/02/05 17:14:37;;;;;;;37.20;16.00;;;;;;;1.03;79.99;98676.61;433363;1268;97910;-41
2022/02/05 17:24:45;;;;;;;55.80;22.50;;;;;;;0.88;80.21;98688.80;433134;1268;98006;-40
2022/02/05 17:34:54;;;;;;;40.20;16.90;;;;;;;0.81;80.28;98700.60;433200;1268;110816;-41
2022/02/05 17:45:02;;;;;;;15.80;8.50;;;;;;;0.84;80.54;98711.72;433336;1267;108998;-41
2022/02/05 17:55:15;;;;;;;22.20;10.40;;;;;;;0.84;80.58;98709.27;433227;1268;97940;-40
2022/02/05 18:05:35;;;;;;;30.70;14.50;;;;;;;0.80;80.83;98714.11;432950;1268;111197;-39
2022/02/05 18:15:43;;;;;;;32.50;13.60;;;;;;;0.68;81.12;98722.58;432945;1268;108706;-40
2022/02/05 18:25:49;;;;;;;27.90;11.20;;;;;;;0.63;81.40;98725.66;432880;1268;108100;-41
2022/02/05 18:35:56;;;;;;;17.70;9.00;;;;;;;0.66;81.25;98724.36;432946;1268;97901;-40
2022/02/05 18:46:03;;;;;;;22.60;12.00;;;;;;;0.65;81.49;98723.55;433239;1268;111015;-40
2022/02/05 18:56:10;;;;;;;33.40;16.30;;;;;;;0.58;81.51;98722.35;433077;1268;108883;-42
2022/02/05 19:27:07;;;;;;;32.90;16.20;;;;;;;0.33;82.00;98740.64;433108;1268;108891;-41
2022/02/05 19:37:15;;;;;;;34.20;15.70;;;;;;;0.37;82.10;98734.13;432826;1268;97897;-40
2022/02/05 19:57:32;;;;;;;64.10;26.40;;;;;;;0.47;82.43;98735.53;432958;1268;108794;-41
2022/02/05 20:18:02;;;;;;;41.20;17.20;;;;;;;0.06;82.30;98727.97;432982;1268;97513;-40
2022/02/05 20:28:10;;;;;;;35.90;16.70;;;;;;;0.05;82.56;98723.87;432909;1268;107783;-40
2022/02/05 20:38:18;;;;;;;38.40;16.70;;;;;;;0.18;82.79;98717.96;433013;1268;97940;-40
2022/02/05 20:48:26;;;;;;;36.90;20.30;;;;;;;0.23;82.78;98719.50;433012;1268;111335;-40
2022/02/05 20:58:33;;;;;;;50.40;24.30;;;;;;;0.17;82.84;98703.55;433122;1268;108796;-41
2022/02/05 21:08:40;;;;;;;47.20;24.20;;;;;;;0.05;83.07;98703.42;432935;1268;108615;-41
2022/02/05 21:18:47;;;;;;;40.20;19.60;;;;;;;0.00;82.86;98699.07;433144;1268;97872;-40
2022/02/05 21:28:59;;;;;;;30.20;14.80;;;;;;;0.05;82.89;98694.95;433016;1268;108543;-44
2022/02/05 21:39:06;;;;;;;32.00;15.70;;;;;;;0.15;82.99;98687.23;433070;1267;97900;-40
2022/02/05 21:49:15;;;;;;;42.00;20.20;;;;;;;0.23;83.06;98685.74;432915;1268;111144;-40
2022/02/05 21:59:25;;;;;;;37.20;18.70;;;;;;;0.18;82.98;98675.70;433282;1268;107559;-40
2022/02/05 22:09:32;;;;;;;22.30;11.40;;;;;;;0.18;83.23;98681.39;433329;1268;107890;-41
2022/02/05 22:19:39;;;;;;;24.50;10.50;;;;;;;0.29;83.20;98665.11;433361;1268;97922;-40
2022/02/05 22:29:46;;;;;;;23.00;10.80;;;;;;;0.37;83.13;98647.97;433320;1268;109291;-40
2022/02/05 22:39:56;;;;;;;32.70;12.30;;;;;;;0.42;83.24;98646.23;433300;1268;98574;-40
2022/02/05 22:50:04;;;;;;;30.30;13.10;;;;;;;0.48;83.33;98649.42;433403;1268;111142;-40
2022/02/05 23:00:17;;;;;;;24.90;11.00;;;;;;;0.51;83.26;98634.54;433348;1268;108867;-41
2022/02/05 23:51:29;;;;;;;36.40;10.90;;;;;;;0.47;82.88;98573.88;433310;1267;98006;-40
